KARA/ARA METAR and TAF weather

Enter ICAO airport designator
Station Type Date Time Source
KARA METAR 2020/01/18 20:53 UTC NOAA

KARA 182053Z 20009KT 10SM SCT013 24/21 A3010 RMK AO2 LTG DSNT NW SLP191 T02440206 58021


Station Type Date Time Source
KARA Decoded METAR 2020/01/18 20:53 UTC NOAA

NEW IBERIA ACADIANA REGIONAL, LA, United States (KARA) 30-02N 091-53W 18M
Jan 18, 2020 - 03:53 PM EST / 2020.01.18 2053 UTC
Wind: from the SSW (200 degrees) at 10 MPH (9 KT):0
Visibility: 10 mile(s):0
Sky conditions: partly cloudy
Weather: Lightning observed
Temperature: 75.9 F (24.4 C)
Dew Point: 69.1 F (20.6 C)
Relative Humidity: 79%
Pressure (altimeter): 30.1 in. Hg (1019 hPa)
Pressure tendency: 0.06 inches (2.1 hPa) lower than three hours ago
ob: KARA 182053Z 20009KT 10SM SCT013 24/21 A3010 RMK AO2 LTG DSNT NW SLP191 T02440206 58021
cycle: 21

Station Type Date Time Source
KARA TAF 2020/01/18 22:54 UTC NOAA

TAF
AMD KARA 182148Z 1822/1918 22009KT P6SM VCTS OVC015CB
TEMPO 1822/1824 VRB15G30KT 2SM SHRA BKN008
FM190000 32008KT P6SM VCSH OVC020
FM190600 36013G20KT P6SM VCSH OVC020
FM190900 01016G23KT P6SM OVC050
FM191700 02018G25KT P6SM SCT050

Example: see airport list